createdAt,value
2023-04-17T00:02:25.623Z,99.36
2023-04-17T00:04:53.675Z,99.29
2023-04-17T00:07:24.151Z,99.04
2023-04-17T00:09:50.974Z,99.17
2023-04-17T00:12:17.585Z,98.49
2023-04-17T00:14:44.537Z,99.26
2023-04-17T00:17:11.055Z,99.09
2023-04-17T00:19:37.478Z,99.07
2023-04-17T00:22:03.878Z,98.92
2023-04-17T00:24:30.479Z,99.35
2023-04-17T00:26:57.275Z,99.17
2023-04-17T00:29:23.966Z,99.46
2023-04-17T00:31:50.574Z,99.07
2023-04-17T00:34:17.005Z,99.02
2023-04-17T00:36:43.419Z,99.18
2023-04-17T00:39:10.092Z,98.70
2023-04-17T00:41:36.729Z,98.43
2023-04-17T00:44:03.157Z,98.92
2023-04-17T00:46:30.647Z,98.26
2023-04-17T00:48:57.411Z,98.13
2023-04-17T00:51:23.933Z,97.87
2023-04-17T00:53:50.422Z,97.45
2023-04-17T00:56:16.898Z,98.47
2023-04-17T00:58:43.944Z,97.92
2023-04-17T01:01:10.886Z,97.56
2023-04-17T01:03:37.651Z,98.22
2023-04-17T01:06:04.329Z,97.58
2023-04-17T01:08:42.645Z,97.26
2023-04-17T01:11:10.235Z,97.61
2023-04-17T01:13:49.786Z,97.70
2023-04-17T01:16:16.399Z,96.71
2023-04-17T01:18:43.682Z,96.86
2023-04-17T01:23:54.651Z,97.12
2023-04-17T01:26:23.360Z,97.15
2023-04-17T01:28:54.761Z,96.79
2023-04-17T01:31:21.564Z,96.59
2023-04-17T01:33:49.205Z,96.91
2023-04-17T01:36:15.959Z,96.55
2023-04-17T01:38:42.535Z,96.53
2023-04-17T01:41:12.057Z,96.75
2023-04-17T01:43:43.744Z,96.82
2023-04-17T01:46:10.599Z,97.02
2023-04-17T01:48:37.316Z,96.54
2023-04-17T01:51:04.306Z,96.67
2023-04-17T01:53:31.919Z,97.24
2023-04-17T01:55:58.842Z,96.68
2023-04-17T01:58:25.346Z,97.01
2023-04-17T02:00:52.026Z,96.77
2023-04-17T02:03:19.227Z,96.88
2023-04-17T02:05:47.352Z,97.14
2023-04-17T02:08:14.362Z,97.10
2023-04-17T02:10:43.749Z,97.12
2023-04-17T02:13:10.925Z,97.30
2023-04-17T02:15:37.918Z,96.48
2023-04-17T02:18:08.345Z,96.64
2023-04-17T02:20:35.994Z,96.36
2023-04-17T02:23:04.501Z,97.21
2023-04-17T02:25:31.008Z,96.88
2023-04-17T02:27:57.604Z,96.92
2023-04-17T02:30:24.847Z,96.98
2023-04-17T02:32:53.014Z,96.59
2023-04-17T02:35:20.945Z,97.75
2023-04-17T02:37:47.895Z,96.61
2023-04-17T02:40:14.964Z,97.17
2023-04-17T02:42:41.483Z,96.76
2023-04-17T02:45:09.100Z,97.44
2023-04-17T02:47:35.726Z,97.14
2023-04-17T02:50:02.385Z,97.23
2023-04-17T02:52:30.217Z,96.72
2023-04-17T02:54:57.271Z,97.00
2023-04-17T02:57:24.486Z,97.34
2023-04-17T02:59:51.410Z,97.60
2023-04-17T03:02:22.015Z,97.89
2023-04-17T03:04:50.421Z,97.69
2023-04-17T03:07:18.753Z,97.28
2023-04-17T03:09:48.580Z,97.98
2023-04-17T03:12:16.609Z,97.24
2023-04-17T03:14:43.436Z,97.93
2023-04-17T03:17:11.787Z,98.07
2023-04-17T03:19:38.223Z,98.50
2023-04-17T03:22:05.065Z,98.58
2023-04-17T03:24:31.793Z,98.24
2023-04-17T03:26:59.664Z,98.76
2023-04-17T03:29:26.256Z,98.40
2023-04-17T03:31:52.810Z,98.09
2023-04-17T03:34:22.359Z,98.93
2023-04-17T03:36:49.196Z,97.99
2023-04-17T03:39:15.917Z,98.70
2023-04-17T03:41:42.372Z,98.69
2023-04-17T03:44:09.866Z,98.73
2023-04-17T03:46:36.430Z,98.28
2023-04-17T03:49:02.893Z,98.86
2023-04-17T03:51:29.470Z,99.02
2023-04-17T03:53:56.042Z,98.54
2023-04-17T03:56:22.580Z,99.77
2023-04-17T03:58:49.068Z,99.12
2023-04-17T04:01:15.878Z,98.90
2023-04-17T04:03:42.719Z,98.91
2023-04-17T04:06:09.663Z,99.34
2023-04-17T04:08:36.122Z,99.77
2023-04-17T04:11:03.207Z,99.20
2023-04-17T04:13:29.678Z,99.55
2023-04-17T04:15:56.191Z,100.00
2023-04-17T04:18:22.776Z,99.81
2023-04-17T04:20:49.204Z,99.53
2023-04-17T04:23:16.845Z,99.90
2023-04-17T04:25:43.626Z,99.41
2023-04-17T04:28:10.701Z,99.60
2023-04-17T04:30:38.809Z,99.74
2023-04-17T04:33:06.048Z,100.00
2023-04-17T04:35:32.745Z,100.00
2023-04-17T04:38:02.438Z,99.98
2023-04-17T04:40:30.796Z,100.00
2023-04-17T04:42:57.306Z,99.56
2023-04-17T04:45:23.980Z,100.00
2023-04-17T04:47:50.699Z,99.61
2023-04-17T04:50:17.660Z,100.00
2023-04-17T04:52:44.149Z,99.87
2023-04-17T04:55:10.609Z,99.96
2023-04-17T04:57:37.031Z,100.00
2023-04-17T05:00:06.569Z,100.00
2023-04-17T05:02:33.302Z,100.00
2023-04-17T05:05:00.172Z,100.00
2023-04-17T05:07:27.208Z,100.00
2023-04-17T05:09:53.636Z,100.00
2023-04-17T05:12:20.069Z,100.00
2023-04-17T05:14:47.876Z,100.00
2023-04-17T05:17:14.713Z,100.00
2023-04-17T05:19:41.140Z,100.00
2023-04-17T05:22:07.611Z,100.00
2023-04-17T05:24:34.081Z,100.00
2023-04-17T05:27:02.073Z,100.00
2023-04-17T05:29:28.642Z,100.00
2023-04-17T05:31:55.228Z,100.00
2023-04-17T05:34:21.725Z,100.00
2023-04-17T05:36:48.356Z,99.78
2023-04-17T05:39:14.888Z,100.00
2023-04-17T05:41:41.432Z,100.00
2023-04-17T05:44:08.348Z,99.87
2023-04-17T05:46:34.849Z,100.00
2023-04-17T05:49:01.272Z,100.00
2023-04-17T05:51:27.730Z,100.00
2023-04-17T05:53:54.186Z,100.00
2023-04-17T05:56:21.148Z,100.00
2023-04-17T05:58:47.606Z,100.00
2023-04-17T06:01:17.762Z,100.00
2023-04-17T06:03:44.409Z,100.00
2023-04-17T06:06:11.411Z,100.00
2023-04-17T06:08:37.856Z,100.00
2023-04-17T06:11:04.491Z,100.00
2023-04-17T06:13:31.077Z,100.00
2023-04-17T06:15:57.629Z,100.00
2023-04-17T06:18:24.146Z,100.00
2023-04-17T06:20:50.904Z,100.00
2023-04-17T06:23:17.508Z,100.00
2023-04-17T06:25:44.014Z,100.00
2023-04-17T06:28:10.654Z,100.00
2023-04-17T06:30:37.948Z,100.00
2023-04-17T06:33:04.583Z,100.00
2023-04-17T06:35:31.149Z,100.00
2023-04-17T06:37:58.295Z,100.00
2023-04-17T06:40:24.759Z,100.00
2023-04-17T06:42:51.360Z,100.00
2023-04-17T06:45:17.972Z,100.00
2023-04-17T06:47:46.501Z,100.00
2023-04-17T06:50:13.119Z,100.00
2023-04-17T06:52:39.574Z,100.00
2023-04-17T06:55:06.572Z,100.00
2023-04-17T06:57:34.102Z,100.00
2023-04-17T07:00:00.684Z,100.00
2023-04-17T07:02:27.542Z,100.00
2023-04-17T07:04:55.132Z,100.00
2023-04-17T07:07:21.716Z,100.00
2023-04-17T07:09:48.358Z,100.00
2023-04-17T07:12:17.846Z,100.00
2023-04-17T07:14:44.348Z,100.00
2023-04-17T07:17:11.057Z,100.00
2023-04-17T07:19:37.551Z,100.00
2023-04-17T07:22:05.503Z,99.68
2023-04-17T07:24:35.727Z,99.84
2023-04-17T07:27:03.405Z,99.41
2023-04-17T07:29:30.664Z,99.73
2023-04-17T07:31:57.240Z,99.29
2023-04-17T07:34:25.239Z,100.00
2023-04-17T07:36:54.543Z,99.74
2023-04-17T07:39:21.062Z,99.48
2023-04-17T07:41:48.414Z,99.67
2023-04-17T07:44:14.907Z,99.19
2023-04-17T07:46:43.059Z,99.13
2023-04-17T07:49:12.058Z,98.84
2023-04-17T07:51:41.122Z,98.62
2023-04-17T07:54:07.767Z,98.80
2023-04-17T07:56:34.660Z,98.97
2023-04-17T07:59:01.200Z,98.56
2023-04-17T08:01:27.738Z,98.03
2023-04-17T08:03:55.538Z,98.68
2023-04-17T08:06:22.228Z,98.05
2023-04-17T08:08:48.670Z,97.98
2023-04-17T08:11:15.452Z,97.76
2023-04-17T08:13:42.131Z,97.37
2023-04-17T08:16:09.970Z,97.74
2023-04-17T08:18:37.869Z,96.83
2023-04-17T08:21:04.464Z,96.60
2023-04-17T08:23:31.021Z,96.15
2023-04-17T08:25:57.742Z,95.99
2023-04-17T08:28:30.384Z,96.07
2023-04-17T08:30:57.281Z,94.80
2023-04-17T08:33:23.857Z,95.09
2023-04-17T08:35:51.957Z,94.95
2023-04-17T08:38:18.512Z,95.35
2023-04-17T08:40:52.009Z,94.22
2023-04-17T08:43:20.795Z,94.67
2023-04-17T08:45:55.139Z,94.15
2023-04-17T08:48:22.899Z,93.89
2023-04-17T08:50:51.036Z,93.82
2023-04-17T08:53:18.613Z,93.25
2023-04-17T08:55:45.891Z,92.13
2023-04-17T08:58:13.294Z,92.26
2023-04-17T09:00:41.557Z,92.16
2023-04-17T09:03:11.157Z,91.09
2023-04-17T09:05:39.933Z,89.91
2023-04-17T09:08:16.568Z,91.02
2023-04-17T09:10:45.935Z,90.58
2023-04-17T09:13:24.935Z,90.00
2023-04-17T09:16:25.770Z,89.47
2023-04-17T09:19:05.277Z,87.41
2023-04-17T09:21:31.747Z,86.99
2023-04-17T09:23:59.508Z,86.44
2023-04-17T09:26:27.672Z,85.78
2023-04-17T09:29:12.420Z,85.90
2023-04-17T09:31:43.412Z,87.07
2023-04-17T09:34:12.172Z,86.80
2023-04-17T09:36:41.613Z,86.69
2023-04-17T09:39:28.408Z,87.23
2023-04-17T09:42:03.944Z,87.03
2023-04-17T09:44:31.198Z,87.08
2023-04-17T09:46:58.857Z,86.30
2023-04-17T09:49:43.436Z,86.07
2023-04-17T09:52:10.397Z,85.98
2023-04-17T09:54:38.153Z,86.35
2023-04-17T09:57:09.802Z,87.21
2023-04-17T09:59:45.593Z,86.38
2023-04-17T10:02:17.771Z,86.38
2023-04-17T10:04:46.950Z,85.95
2023-04-17T10:07:14.103Z,86.91
2023-04-17T10:09:42.023Z,86.33
2023-04-17T10:12:14.739Z,86.06
2023-04-17T10:14:44.287Z,85.88
2023-04-17T10:17:28.758Z,86.25
2023-04-17T10:19:55.921Z,85.91
2023-04-17T10:22:24.083Z,86.32
2023-04-17T10:24:52.708Z,85.95
2023-04-17T10:27:28.343Z,85.63
2023-04-17T10:29:59.593Z,85.20
2023-04-17T10:32:30.368Z,84.76
2023-04-17T10:35:01.902Z,84.24
2023-04-17T10:37:46.869Z,84.76
2023-04-17T10:40:24.419Z,83.73
2023-04-17T10:43:23.005Z,83.96
2023-04-17T10:46:05.093Z,83.34
2023-04-17T10:48:42.359Z,82.89
2023-04-17T10:51:24.193Z,81.24
2023-04-17T10:53:55.512Z,81.04
2023-04-17T10:56:30.837Z,79.48
2023-04-17T10:59:02.064Z,79.44
2023-04-17T11:01:31.985Z,79.85
2023-04-17T11:04:01.840Z,78.45
2023-04-17T11:06:31.574Z,78.79
2023-04-17T11:09:00.822Z,77.27
2023-04-17T11:11:40.404Z,77.04
2023-04-17T11:14:14.357Z,76.26
2023-04-17T11:16:43.046Z,76.88
2023-04-17T11:19:11.300Z,76.70
2023-04-17T11:21:48.048Z,76.60
2023-04-17T11:24:22.636Z,75.64
2023-04-17T11:26:50.001Z,75.26
2023-04-17T11:29:17.565Z,75.72
2023-04-17T11:31:48.681Z,74.86
2023-04-17T11:34:16.258Z,73.60
2023-04-17T11:37:00.217Z,74.36
2023-04-17T11:39:29.768Z,74.40
2023-04-17T11:41:59.063Z,73.59
2023-04-17T11:44:26.258Z,72.94
2023-04-17T11:46:54.319Z,73.01
2023-04-17T11:49:26.269Z,74.04
2023-04-17T11:51:53.820Z,72.17
2023-04-17T11:54:37.566Z,72.72
2023-04-17T11:57:06.778Z,72.64
2023-04-17T11:59:38.068Z,71.27
2023-04-17T12:02:07.487Z,71.71
2023-04-17T12:04:36.605Z,71.46
2023-04-17T12:07:04.801Z,70.17
2023-04-17T12:09:32.458Z,71.15
2023-04-17T12:12:05.432Z,70.65
2023-04-17T12:14:32.392Z,70.79
2023-04-17T12:16:59.373Z,71.41
2023-04-17T12:19:27.295Z,70.05
2023-04-17T12:21:54.678Z,69.66
2023-04-17T12:24:24.085Z,69.87
2023-04-17T12:26:51.717Z,69.92
2023-04-17T12:29:20.399Z,69.79
2023-04-17T12:31:51.158Z,69.77
2023-04-17T12:34:17.688Z,70.75
2023-04-17T12:36:44.751Z,69.45
2023-04-17T12:39:12.963Z,69.51
2023-04-17T12:41:39.558Z,68.25
2023-04-17T12:44:06.226Z,67.72
2023-04-17T12:46:32.812Z,67.52
2023-04-17T12:48:59.379Z,67.17
2023-04-17T12:51:29.728Z,67.96
2023-04-17T12:53:56.355Z,67.70
2023-04-17T12:56:23.260Z,67.20
2023-04-17T12:58:49.953Z,67.75
2023-04-17T13:01:16.602Z,67.70
2023-04-17T13:03:43.319Z,67.05
2023-04-17T13:06:10.250Z,66.51
2023-04-17T13:08:36.680Z,67.18
2023-04-17T13:11:03.973Z,67.39
2023-04-17T13:13:30.600Z,66.29
2023-04-17T13:15:57.059Z,67.07
2023-04-17T13:18:23.545Z,66.72
2023-04-17T13:20:50.084Z,66.11
2023-04-17T13:23:16.601Z,66.84
2023-04-17T13:25:43.052Z,65.08
2023-04-17T13:28:09.491Z,64.88
2023-04-17T13:30:37.344Z,64.36
2023-04-17T13:33:04.192Z,63.39
2023-04-17T13:35:30.931Z,62.26
2023-04-17T13:38:00.884Z,61.25
2023-04-17T13:40:27.711Z,60.79
2023-04-17T13:42:54.643Z,61.36
2023-04-17T13:45:21.341Z,61.42
2023-04-17T13:47:47.943Z,60.50
2023-04-17T13:50:14.522Z,60.29
2023-04-17T13:52:40.951Z,58.06
2023-04-17T13:55:11.782Z,58.73
2023-04-17T13:57:38.568Z,59.47
2023-04-17T14:00:06.361Z,58.71
2023-04-17T14:02:33.116Z,59.60
2023-04-17T14:05:00.258Z,59.79
2023-04-17T14:07:27.529Z,60.18
2023-04-17T14:09:54.174Z,59.53
2023-04-17T14:12:21.766Z,58.05
2023-04-17T14:14:48.304Z,57.42
2023-04-17T14:17:14.882Z,57.97
2023-04-17T14:19:41.417Z,58.60
2023-04-17T14:22:07.982Z,57.82
2023-04-17T14:24:34.464Z,58.52
2023-04-17T14:27:01.947Z,59.30
2023-04-17T14:29:28.542Z,59.77
2023-04-17T14:31:55.225Z,59.86
2023-04-17T14:34:21.772Z,60.47
2023-04-17T14:36:48.787Z,59.30
2023-04-17T14:39:15.508Z,59.75
2023-04-17T14:41:42.375Z,59.42
2023-04-17T14:44:08.958Z,58.59
2023-04-17T14:46:35.672Z,57.45
2023-04-17T14:49:02.392Z,56.34
2023-04-17T14:51:30.426Z,57.26
2023-04-17T14:53:57.228Z,57.42
2023-04-17T14:56:23.828Z,58.28
2023-04-17T14:58:50.360Z,60.23
2023-04-17T15:01:16.918Z,60.84
2023-04-17T15:03:47.443Z,61.31
2023-04-17T15:06:14.762Z,60.77
2023-04-17T15:08:41.630Z,60.17
2023-04-17T15:11:08.708Z,58.61
2023-04-17T15:13:35.836Z,59.02
2023-04-17T15:16:02.788Z,63.09
2023-04-17T15:18:29.298Z,63.02
2023-04-17T15:20:56.125Z,61.37
2023-04-17T15:23:22.878Z,61.47
2023-04-17T15:25:49.447Z,64.00
2023-04-17T15:28:16.074Z,65.67
2023-04-17T15:30:42.762Z,66.95
2023-04-17T15:33:10.357Z,68.32
2023-04-17T15:35:37.443Z,68.91
2023-04-17T15:38:05.565Z,69.66
2023-04-17T15:40:32.009Z,68.90
2023-04-17T15:42:58.429Z,68.40
2023-04-17T15:45:26.202Z,68.45
2023-04-17T15:47:53.605Z,67.32
2023-04-17T15:50:21.348Z,66.34
2023-04-17T15:52:48.170Z,66.27
2023-04-17T15:55:15.078Z,66.29
2023-04-17T15:57:43.156Z,66.60
2023-04-17T16:00:10.564Z,66.10
2023-04-17T16:02:37.186Z,66.00
2023-04-17T16:05:04.350Z,65.06
2023-04-17T16:07:31.838Z,64.21
2023-04-17T16:09:58.478Z,62.75
2023-04-17T16:12:24.917Z,62.53
2023-04-17T16:14:51.416Z,60.89
2023-04-17T16:17:18.138Z,60.11
2023-04-17T16:19:44.669Z,59.94
2023-04-17T16:22:11.136Z,61.80
2023-04-17T16:24:37.572Z,62.93
2023-04-17T16:27:06.290Z,63.51
2023-04-17T16:29:32.775Z,64.81
2023-04-17T16:31:59.604Z,64.74
2023-04-17T16:34:26.182Z,65.77
2023-04-17T16:36:52.667Z,66.14
2023-04-17T16:39:19.173Z,66.59
2023-04-17T16:41:45.617Z,66.98
2023-04-17T16:44:12.179Z,67.91
2023-04-17T16:49:10.100Z,65.84
2023-04-17T16:51:38.285Z,66.02
2023-04-17T16:54:04.949Z,66.24
2023-04-17T16:56:31.431Z,66.41
2023-04-17T16:58:57.888Z,65.86
2023-04-17T17:01:24.379Z,66.65
2023-04-17T17:03:51.077Z,66.82
2023-04-17T17:06:17.773Z,66.35
2023-04-17T17:08:46.770Z,66.93
2023-04-17T17:11:15.025Z,67.30
2023-04-17T17:13:41.470Z,67.58
2023-04-17T17:16:08.084Z,67.44
2023-04-17T17:18:34.530Z,67.97
2023-04-17T17:21:01.917Z,68.84
2023-04-17T17:23:28.478Z,69.25
2023-04-17T17:25:54.931Z,68.78
2023-04-17T17:28:21.816Z,69.05
2023-04-17T17:30:48.539Z,69.28
2023-04-17T17:33:15.074Z,69.04
2023-04-17T17:35:41.530Z,69.31
2023-04-17T17:38:07.942Z,69.90
2023-04-17T17:40:34.408Z,69.74
2023-04-17T17:43:01.468Z,69.55
2023-04-17T17:45:27.962Z,69.71
2023-04-17T17:47:54.484Z,69.82
2023-04-17T17:50:21.045Z,69.59
2023-04-17T17:52:52.296Z,69.76
2023-04-17T17:55:19.058Z,70.04
2023-04-17T17:57:49.223Z,69.28
2023-04-17T18:00:16.659Z,69.76
2023-04-17T18:02:43.347Z,69.73
2023-04-17T18:05:10.141Z,70.33
2023-04-17T18:07:36.701Z,70.31
2023-04-17T18:10:03.733Z,70.10
2023-04-17T18:12:30.274Z,70.16
2023-04-17T18:14:56.813Z,70.73
2023-04-17T18:17:23.274Z,71.23
2023-04-17T18:19:49.771Z,70.97
2023-04-17T18:22:16.362Z,71.30
2023-04-17T18:24:45.881Z,71.23
2023-04-17T18:27:12.468Z,71.74
2023-04-17T18:29:38.976Z,72.24
2023-04-17T18:32:05.418Z,72.54
2023-04-17T18:34:31.874Z,72.47
2023-04-17T18:37:00.238Z,72.75
2023-04-17T18:39:26.741Z,73.34
2023-04-17T18:41:53.305Z,73.95
2023-04-17T18:44:20.518Z,74.19
2023-04-17T18:46:50.842Z,74.40
2023-04-17T18:49:17.320Z,74.89
2023-04-17T18:51:50.300Z,75.16
2023-04-17T18:54:18.024Z,76.08
2023-04-17T18:56:44.828Z,76.16
2023-04-17T18:59:12.065Z,76.44
2023-04-17T19:01:38.750Z,76.88
2023-04-17T19:04:05.294Z,77.24
2023-04-17T19:06:31.859Z,77.17
2023-04-17T19:08:58.414Z,77.40
2023-04-17T19:11:28.188Z,77.86
2023-04-17T19:13:54.715Z,77.96
2023-04-17T19:16:21.290Z,78.05
2023-04-17T19:18:47.758Z,78.30
2023-04-17T19:21:16.032Z,78.38
2023-04-17T19:23:42.861Z,78.62
2023-04-17T19:26:09.725Z,78.21
2023-04-17T19:28:36.340Z,78.43
2023-04-17T19:31:03.150Z,78.12
2023-04-17T19:33:31.996Z,77.81
2023-04-17T19:35:59.183Z,77.84
2023-04-17T19:38:26.028Z,78.01
2023-04-17T19:41:15.216Z,77.70
2023-04-17T19:43:42.534Z,77.54
2023-04-17T19:46:09.403Z,77.21
2023-04-17T19:48:36.816Z,77.31
2023-04-17T19:51:07.074Z,77.22
2023-04-17T19:53:39.397Z,77.38
2023-04-17T19:56:08.980Z,77.46
2023-04-17T19:58:36.476Z,77.47
2023-04-17T20:01:03.093Z,77.01
2023-04-17T20:03:30.737Z,77.16
2023-04-17T20:05:58.175Z,76.79
2023-04-17T20:08:25.609Z,77.05
2023-04-17T20:10:52.271Z,77.21
2023-04-17T20:13:18.841Z,76.98
2023-04-17T20:15:45.371Z,76.94
2023-04-17T20:18:11.888Z,77.47
2023-04-17T20:20:43.085Z,77.01
2023-04-17T20:23:09.609Z,77.18
2023-04-17T20:25:36.208Z,77.09
2023-04-17T20:28:02.933Z,77.02
2023-04-17T20:30:30.357Z,76.92
2023-04-17T20:32:57.156Z,77.22
2023-04-17T20:35:24.639Z,77.04
2023-04-17T20:37:52.002Z,77.28
2023-04-17T20:40:19.022Z,77.08
2023-04-17T20:42:46.666Z,77.18
2023-04-17T20:45:13.406Z,77.43
2023-04-17T20:47:55.405Z,76.92
2023-04-17T20:50:23.476Z,77.00
2023-04-17T20:52:50.083Z,77.00
2023-04-17T20:55:18.915Z,77.02
2023-04-17T20:57:45.994Z,77.34
2023-04-17T21:00:13.261Z,77.09
2023-04-17T21:02:40.035Z,77.54
2023-04-17T21:05:07.618Z,77.21
2023-04-17T21:07:34.130Z,77.60
2023-04-17T21:10:00.581Z,77.25
2023-04-17T21:12:27.110Z,77.16
2023-04-17T21:14:53.557Z,77.35
2023-04-17T21:17:20.041Z,77.34
2023-04-17T21:19:47.254Z,77.35
2023-04-17T21:22:13.745Z,77.49
2023-04-17T21:24:40.276Z,77.81
2023-04-17T21:27:06.743Z,77.85
2023-04-17T21:29:33.182Z,77.94
2023-04-17T21:31:59.781Z,78.07
2023-04-17T21:34:26.443Z,78.54
2023-04-17T21:36:56.561Z,78.31
2023-04-17T21:39:23.029Z,79.05
2023-04-17T21:41:49.446Z,78.88
2023-04-17T21:44:16.096Z,78.93
2023-04-17T21:46:46.204Z,79.27
2023-04-17T21:49:12.872Z,79.07
2023-04-17T21:51:39.707Z,79.36
2023-04-17T21:54:06.297Z,79.51
2023-04-17T21:56:32.831Z,79.87
2023-04-17T21:58:59.286Z,80.28
2023-04-17T22:01:25.775Z,80.37
2023-04-17T22:03:52.404Z,80.32
2023-04-17T22:06:18.942Z,80.39
2023-04-17T22:08:45.486Z,80.91
2023-04-17T22:11:12.049Z,81.23
2023-04-17T22:13:38.576Z,81.67
2023-04-17T22:16:05.310Z,81.75
2023-04-17T22:18:31.882Z,81.61
2023-04-17T22:20:58.355Z,82.01
2023-04-17T22:23:24.809Z,82.07
2023-04-17T22:25:51.335Z,82.71
2023-04-17T22:28:17.866Z,82.54
2023-04-17T22:30:45.130Z,82.69
2023-04-17T22:33:11.694Z,83.31
2023-04-17T22:35:38.232Z,83.71
2023-04-17T22:38:04.672Z,83.12
2023-04-17T22:40:31.205Z,83.29
2023-04-17T22:42:58.057Z,83.40
2023-04-17T22:45:24.553Z,83.53
2023-04-17T22:47:51.081Z,84.00
2023-04-17T22:50:17.728Z,83.55
2023-04-17T22:52:45.146Z,84.10
2023-04-17T22:55:11.693Z,83.78
2023-04-17T22:57:38.163Z,84.07
2023-04-17T23:00:06.432Z,83.78
2023-04-17T23:02:33.039Z,83.66
2023-04-17T23:04:59.641Z,84.12
2023-04-17T23:07:26.241Z,83.87
2023-04-17T23:09:52.696Z,84.04
2023-04-17T23:12:19.964Z,83.68
2023-04-17T23:14:49.854Z,83.62
2023-04-17T23:17:16.368Z,83.88
2023-04-17T23:19:42.918Z,83.79
2023-04-17T23:22:09.865Z,83.83
2023-04-17T23:24:36.395Z,83.25
2023-04-17T23:27:02.871Z,83.95
2023-04-17T23:29:29.314Z,84.15
2023-04-17T23:31:55.830Z,83.67
2023-04-17T23:34:22.483Z,84.32
2023-04-17T23:36:49.745Z,84.14
2023-04-17T23:39:16.157Z,83.54
2023-04-17T23:41:42.776Z,83.82
2023-04-17T23:44:09.828Z,84.29
2023-04-17T23:46:36.670Z,83.48
2023-04-17T23:49:03.549Z,84.30
2023-04-17T23:51:30.381Z,84.10
2023-04-17T23:54:01.077Z,83.41
2023-04-17T23:56:29.999Z,83.36
2023-04-17T23:58:57.203Z,82.44
